Elm Grove, Louisiana
Current Conditions -  °F | °C
As of 11:18 PM on Monday 20 Oct 2014 (Local Time) from KBAD Reporting Station
Clear Clear  
Wind Chill: 59°   Ceiling: Unl
Heat Index: 59°   Visibility: 9mi
Dew Point: 55°   Wind: 0mph
Humidity: 88%   Direction: NA
Pressure: 30.06"   Gusts: NA
Location:  32.35°N, 93.55°W
Report Text: KBAD 210418Z AUTO 00000KT 9SM R15/5500FT CLR 15/13 A3006 RMK AO2
Loading
Personal Weather Stations






























Interactive Weather Map
Tropical Storm Tracking
New forecast layout! Learn more

10-Day Weather Forecast

Advertisements
Track Severe Weather on mobile